createdAt,value
2023-05-10T00:00:27.539Z,12.50
2023-05-10T00:02:54.551Z,12.49
2023-05-10T00:05:21.577Z,12.44
2023-05-10T00:07:48.503Z,12.44
2023-05-10T00:10:15.776Z,12.49
2023-05-10T00:12:43.413Z,12.48
2023-05-10T00:15:10.696Z,12.44
2023-05-10T00:17:38.102Z,12.41
2023-05-10T00:20:06.097Z,12.47
2023-05-10T00:22:33.194Z,12.38
2023-05-10T00:25:00.204Z,12.26
2023-05-10T00:27:27.082Z,12.23
2023-05-10T00:29:53.964Z,12.11
2023-05-10T00:32:21.826Z,12.04
2023-05-10T00:34:49.263Z,12.01
2023-05-10T00:37:16.363Z,11.92
2023-05-10T00:39:43.449Z,11.82
2023-05-10T00:42:10.680Z,11.73
2023-05-10T00:44:38.147Z,11.76
2023-05-10T00:47:05.573Z,11.69
2023-05-10T00:49:32.760Z,11.65
2023-05-10T00:51:59.968Z,11.69
2023-05-10T00:54:27.078Z,11.67
2023-05-10T00:56:54.318Z,11.71
2023-05-10T00:59:21.386Z,11.71
2023-05-10T01:01:48.653Z,11.73
2023-05-10T01:04:16.126Z,11.75
2023-05-10T01:06:43.666Z,11.73
2023-05-10T01:09:11.302Z,11.73
2023-05-10T01:11:39.488Z,11.72
2023-05-10T01:14:06.698Z,11.74
2023-05-10T01:16:35.886Z,11.82
2023-05-10T01:19:02.766Z,11.90
2023-05-10T01:21:41.696Z,11.86
2023-05-10T01:24:08.700Z,11.86
2023-05-10T01:26:57.009Z,11.77
2023-05-10T01:29:27.043Z,11.83
2023-05-10T01:32:08.866Z,11.85
2023-05-10T01:35:04.116Z,11.88
2023-05-10T01:37:54.170Z,11.86
2023-05-10T01:40:32.996Z,11.77
2023-05-10T01:43:04.313Z,11.82
2023-05-10T01:45:48.367Z,11.82
2023-05-10T01:48:15.433Z,11.81
2023-05-10T01:50:45.543Z,11.75
2023-05-10T01:53:13.247Z,11.75
2023-05-10T01:55:47.112Z,11.71
2023-05-10T01:58:22.758Z,11.70
2023-05-10T02:00:50.870Z,11.68
2023-05-10T02:03:18.398Z,11.70
2023-05-10T02:05:46.515Z,11.72
2023-05-10T02:08:13.553Z,11.69
2023-05-10T02:10:40.848Z,11.68
2023-05-10T02:13:07.806Z,11.70
2023-05-10T02:15:34.856Z,11.68
2023-05-10T02:18:02.074Z,11.67
2023-05-10T02:20:29.334Z,11.69
2023-05-10T02:22:57.509Z,11.70
2023-05-10T02:25:24.822Z,11.68
2023-05-10T02:27:51.671Z,11.64
2023-05-10T02:30:19.256Z,11.61
2023-05-10T02:32:46.456Z,11.61
2023-05-10T02:35:13.452Z,11.56
2023-05-10T02:37:40.424Z,11.52
2023-05-10T02:40:08.047Z,11.52
2023-05-10T02:42:37.851Z,11.52
2023-05-10T02:45:12.634Z,11.56
2023-05-10T02:47:39.520Z,11.57
2023-05-10T02:50:06.878Z,11.55
2023-05-10T02:52:49.628Z,11.61
2023-05-10T02:55:18.069Z,11.62
2023-05-10T02:57:50.229Z,11.62
2023-05-10T03:00:17.678Z,11.55
2023-05-10T03:02:45.357Z,11.49
2023-05-10T03:05:12.387Z,11.34
2023-05-10T03:07:39.555Z,11.10
2023-05-10T03:10:07.521Z,11.05
2023-05-10T03:12:53.121Z,10.98
2023-05-10T03:16:02.875Z,10.88
2023-05-10T03:18:34.531Z,10.82
2023-05-10T03:21:06.566Z,10.76
2023-05-10T03:23:41.282Z,10.72
2023-05-10T03:26:08.880Z,10.73
2023-05-10T03:28:36.663Z,10.71
2023-05-10T03:31:04.621Z,10.68
2023-05-10T03:33:31.599Z,10.63
2023-05-10T03:35:58.580Z,10.58
2023-05-10T03:38:25.602Z,10.61
2023-05-10T03:40:52.466Z,10.60
2023-05-10T03:43:19.453Z,10.58
2023-05-10T03:45:46.474Z,10.62
2023-05-10T03:48:15.110Z,10.64
2023-05-10T03:50:42.159Z,10.66
2023-05-10T03:53:09.117Z,10.67
2023-05-10T03:55:37.522Z,10.66
2023-05-10T03:58:04.404Z,10.71
2023-05-10T04:00:32.029Z,10.70
2023-05-10T04:02:58.868Z,10.68
2023-05-10T04:05:25.825Z,10.69
2023-05-10T04:07:52.738Z,10.72
2023-05-10T04:10:19.971Z,10.71
2023-05-10T04:12:47.416Z,10.67
2023-05-10T04:15:14.475Z,10.64
2023-05-10T04:17:41.379Z,10.58
2023-05-10T04:20:09.610Z,10.53
2023-05-10T04:22:36.825Z,10.53
2023-05-10T04:25:04.046Z,10.52
2023-05-10T04:27:31.001Z,10.53
2023-05-10T04:29:58.155Z,10.56
2023-05-10T04:32:25.113Z,10.56
2023-05-10T04:34:52.611Z,10.59
2023-05-10T04:37:19.566Z,10.69
2023-05-10T04:39:46.395Z,10.79
2023-05-10T04:42:13.265Z,10.81
2023-05-10T04:44:40.069Z,10.80
2023-05-10T04:47:06.994Z,10.92
2023-05-10T04:49:33.953Z,11.01
2023-05-10T04:52:00.854Z,11.08
2023-05-10T04:54:27.909Z,11.14
2023-05-10T04:56:54.866Z,11.19
2023-05-10T04:59:21.822Z,11.83
2023-05-10T05:01:48.984Z,12.85
2023-05-10T05:04:16.122Z,13.96
2023-05-10T05:06:43.114Z,14.92
2023-05-10T05:09:11.502Z,15.23
2023-05-10T05:11:38.614Z,15.53
2023-05-10T05:14:05.585Z,15.77
2023-05-10T05:16:33.301Z,15.91
2023-05-10T05:19:01.943Z,15.88
2023-05-10T05:21:30.307Z,15.95
2023-05-10T05:23:57.399Z,16.29
2023-05-10T05:26:24.286Z,16.45
2023-05-10T05:28:54.896Z,16.53
2023-05-10T05:31:22.205Z,16.65
2023-05-10T05:33:49.269Z,16.55
2023-05-10T05:36:16.270Z,16.52
2023-05-10T05:38:44.282Z,16.86
2023-05-10T05:41:11.211Z,16.99
2023-05-10T05:43:38.752Z,16.72
2023-05-10T05:46:06.034Z,16.31
2023-05-10T05:48:33.298Z,15.79
2023-05-10T05:51:00.358Z,15.28
2023-05-10T05:53:31.254Z,14.86
2023-05-10T05:55:59.421Z,14.82
2023-05-10T05:58:27.320Z,15.19
2023-05-10T06:00:56.724Z,15.21
2023-05-10T06:03:24.381Z,15.51
2023-05-10T06:05:51.715Z,15.51
2023-05-10T06:08:18.771Z,15.51
2023-05-10T06:10:46.975Z,15.54
2023-05-10T06:13:14.208Z,15.44
2023-05-10T06:15:41.594Z,15.90
2023-05-10T06:18:11.036Z,16.18
2023-05-10T06:20:38.191Z,16.22
2023-05-10T06:23:08.182Z,16.07
2023-05-10T06:25:35.205Z,16.25
2023-05-10T06:28:03.072Z,16.05
2023-05-10T06:30:30.460Z,16.03
2023-05-10T06:32:57.866Z,15.63
2023-05-10T06:35:25.311Z,15.39
2023-05-10T06:37:52.840Z,14.88
2023-05-10T06:40:20.491Z,15.07
2023-05-10T06:42:48.144Z,15.47
2023-05-10T06:45:16.369Z,16.22
2023-05-10T06:47:43.902Z,16.91
2023-05-10T06:50:12.640Z,17.47
2023-05-10T06:52:39.747Z,17.01
2023-05-10T06:55:07.118Z,15.87
2023-05-10T06:57:34.619Z,15.00
2023-05-10T07:00:01.753Z,14.53
2023-05-10T07:02:29.154Z,14.57
2023-05-10T07:04:56.253Z,15.34
2023-05-10T07:07:23.718Z,15.08
2023-05-10T07:09:51.634Z,14.71
2023-05-10T07:12:18.949Z,14.33
2023-05-10T07:14:46.405Z,13.95
2023-05-10T07:17:13.542Z,13.71
2023-05-10T07:19:40.784Z,13.56
2023-05-10T07:22:08.020Z,13.77
2023-05-10T07:24:35.171Z,14.04
2023-05-10T07:27:02.473Z,14.80
2023-05-10T07:29:30.255Z,15.39
2023-05-10T07:32:01.835Z,14.97
2023-05-10T07:34:29.450Z,15.02
2023-05-10T07:36:56.810Z,14.75
2023-05-10T07:39:27.798Z,14.50
2023-05-10T07:41:58.350Z,14.60
2023-05-10T07:44:25.356Z,14.71
2023-05-10T07:46:54.792Z,14.90
2023-05-10T07:49:21.651Z,15.07
2023-05-10T07:51:48.562Z,15.09
2023-05-10T07:54:15.511Z,15.02
2023-05-10T07:56:46.900Z,15.00
2023-05-10T07:59:18.209Z,14.85
2023-05-10T08:01:45.271Z,15.09
2023-05-10T08:04:12.986Z,16.00
2023-05-10T08:06:41.421Z,16.95
2023-05-10T08:09:09.910Z,17.78
2023-05-10T08:11:37.236Z,18.36
2023-05-10T08:14:04.242Z,18.81
2023-05-10T08:16:31.385Z,19.16
2023-05-10T08:18:58.540Z,19.38
2023-05-10T08:21:25.658Z,18.95
2023-05-10T08:23:53.035Z,18.54
2023-05-10T08:26:24.526Z,18.70
2023-05-10T08:28:51.587Z,18.82
2023-05-10T08:31:19.368Z,19.03
2023-05-10T08:33:46.505Z,18.99
2023-05-10T08:36:15.348Z,18.44
2023-05-10T08:38:42.264Z,17.71
2023-05-10T08:41:09.684Z,17.08
2023-05-10T08:43:36.603Z,16.89
2023-05-10T08:46:04.333Z,16.85
2023-05-10T08:48:32.384Z,16.69
2023-05-10T08:51:07.559Z,16.61
2023-05-10T08:53:34.859Z,16.48
2023-05-10T08:56:03.805Z,16.66
2023-05-10T08:58:30.919Z,16.90
2023-05-10T09:00:58.109Z,17.11
2023-05-10T09:03:25.423Z,17.26
2023-05-10T09:05:52.600Z,17.64
2023-05-10T09:08:19.752Z,18.08
2023-05-10T09:10:49.103Z,18.33
2023-05-10T09:13:17.095Z,18.47
2023-05-10T09:15:45.853Z,18.18
2023-05-10T09:18:13.581Z,18.15
2023-05-10T09:20:40.773Z,18.25
2023-05-10T09:23:08.055Z,18.27
2023-05-10T09:25:35.190Z,18.17
2023-05-10T09:28:02.222Z,18.01
2023-05-10T09:30:32.855Z,18.37
2023-05-10T09:33:00.545Z,18.82
2023-05-10T09:35:30.007Z,18.87
2023-05-10T09:37:58.750Z,19.16
2023-05-10T09:40:26.672Z,19.04
2023-05-10T09:42:56.587Z,18.67
2023-05-10T09:45:24.978Z,18.39
2023-05-10T09:47:51.948Z,18.50
2023-05-10T09:50:19.828Z,18.82
2023-05-10T09:52:52.683Z,18.80
2023-05-10T09:55:24.743Z,19.01
2023-05-10T09:58:01.848Z,18.85
2023-05-10T10:00:29.231Z,18.80
2023-05-10T10:02:57.663Z,18.88
2023-05-10T10:05:34.695Z,18.87
2023-05-10T10:08:04.507Z,19.07
2023-05-10T10:10:32.558Z,19.08
2023-05-10T10:12:59.742Z,19.14
2023-05-10T10:15:26.954Z,19.31
2023-05-10T10:17:54.173Z,19.52
2023-05-10T10:20:22.196Z,19.72
2023-05-10T10:22:49.561Z,19.85
2023-05-10T10:25:18.030Z,20.05
2023-05-10T10:27:54.394Z,20.39
2023-05-10T10:30:45.994Z,20.52
2023-05-10T10:33:47.524Z,20.59
2023-05-10T10:36:16.249Z,20.55
2023-05-10T10:39:00.421Z,20.60
2023-05-10T10:41:34.299Z,20.64
2023-05-10T10:44:23.464Z,20.52
2023-05-10T10:47:13.383Z,20.37
2023-05-10T10:49:43.138Z,20.46
2023-05-10T10:52:34.495Z,20.46
2023-05-10T10:55:10.351Z,20.73
2023-05-10T10:57:52.900Z,20.98
2023-05-10T11:00:31.989Z,21.16
2023-05-10T11:03:00.194Z,21.08
2023-05-10T11:05:30.072Z,21.00
2023-05-10T11:07:58.753Z,20.91
2023-05-10T11:10:25.996Z,20.80
2023-05-10T11:13:03.062Z,20.89
2023-05-10T11:15:31.815Z,20.86
2023-05-10T11:17:58.706Z,20.84
2023-05-10T11:20:34.150Z,21.20
2023-05-10T11:23:14.441Z,21.41
2023-05-10T11:25:48.211Z,21.51
2023-05-10T11:28:15.222Z,21.16
2023-05-10T11:30:43.205Z,21.13
2023-05-10T11:33:10.755Z,21.34
2023-05-10T11:35:43.317Z,21.15
2023-05-10T11:38:14.213Z,21.02
2023-05-10T11:40:41.604Z,20.84
2023-05-10T11:43:09.633Z,20.72
2023-05-10T11:45:36.537Z,20.87
2023-05-10T11:48:04.000Z,20.57
2023-05-10T11:50:30.961Z,20.49
2023-05-10T11:52:58.104Z,20.71
2023-05-10T11:55:27.740Z,20.74
2023-05-10T11:57:55.696Z,20.71
2023-05-10T12:00:22.927Z,20.91
2023-05-10T12:02:49.976Z,21.07
2023-05-10T12:05:17.196Z,20.97
2023-05-10T12:07:44.396Z,20.72
2023-05-10T12:10:19.315Z,20.57
2023-05-10T12:12:48.617Z,20.51
2023-05-10T12:15:25.620Z,20.63
2023-05-10T12:17:52.656Z,20.87
2023-05-10T12:20:24.460Z,20.90
2023-05-10T12:22:55.660Z,21.06
2023-05-10T12:25:24.496Z,21.38
2023-05-10T12:27:59.354Z,21.69
2023-05-10T12:30:30.076Z,21.54
2023-05-10T12:33:11.274Z,21.33
2023-05-10T12:35:52.379Z,21.38
2023-05-10T12:38:35.391Z,21.45
2023-05-10T12:41:04.090Z,21.65
2023-05-10T12:43:31.398Z,21.64
2023-05-10T12:45:58.425Z,21.69
2023-05-10T12:48:25.612Z,21.79
2023-05-10T12:50:52.800Z,21.49
2023-05-10T12:53:19.624Z,21.44
2023-05-10T12:55:46.674Z,21.36
2023-05-10T12:58:18.044Z,21.41
2023-05-10T13:00:55.040Z,21.57
2023-05-10T13:03:21.931Z,21.52
2023-05-10T13:05:48.811Z,21.43
2023-05-10T13:08:15.758Z,21.14
2023-05-10T13:10:42.741Z,20.43
2023-05-10T13:13:13.881Z,19.03
2023-05-10T13:15:41.042Z,17.88
2023-05-10T13:18:08.142Z,16.85
2023-05-10T13:20:35.098Z,16.75
2023-05-10T13:23:02.037Z,16.94
2023-05-10T13:25:28.971Z,17.26
2023-05-10T13:27:55.871Z,17.18
2023-05-10T13:30:22.714Z,16.98
2023-05-10T13:32:49.780Z,16.60
2023-05-10T13:35:16.626Z,16.16
2023-05-10T13:37:43.567Z,16.14
2023-05-10T13:40:12.777Z,16.10
2023-05-10T13:42:39.637Z,16.42
2023-05-10T13:45:07.368Z,17.01
2023-05-10T13:47:34.362Z,17.78
2023-05-10T13:50:01.937Z,18.09
2023-05-10T13:52:28.806Z,18.57
2023-05-10T13:54:58.579Z,18.95
2023-05-10T13:57:25.479Z,19.14
2023-05-10T13:59:54.725Z,19.23
2023-05-10T14:02:23.132Z,19.20
2023-05-10T14:04:50.027Z,19.41
2023-05-10T14:07:16.929Z,19.86
2023-05-10T14:09:43.840Z,19.90
2023-05-10T14:12:10.793Z,20.22
2023-05-10T14:14:37.797Z,20.73
2023-05-10T14:17:04.755Z,21.07
2023-05-10T14:19:33.654Z,21.31
2023-05-10T14:22:01.018Z,21.20
2023-05-10T14:24:27.962Z,21.26
2023-05-10T14:26:56.399Z,21.60
2023-05-10T14:29:23.425Z,21.76
2023-05-10T14:31:51.080Z,21.82
2023-05-10T14:34:18.062Z,21.80
2023-05-10T14:36:45.041Z,21.82
2023-05-10T14:39:14.249Z,21.61
2023-05-10T14:41:45.880Z,21.62
2023-05-10T14:44:33.027Z,21.58
2023-05-10T14:47:00.154Z,21.54
2023-05-10T14:49:27.831Z,21.79
2023-05-10T14:51:57.758Z,21.77
2023-05-10T14:54:24.758Z,21.70
2023-05-10T14:56:51.826Z,21.73
2023-05-10T14:59:18.952Z,21.77
2023-05-10T15:01:47.045Z,21.49
2023-05-10T15:04:14.731Z,21.27
2023-05-10T15:06:42.245Z,21.25
2023-05-10T15:09:09.949Z,21.28
2023-05-10T15:11:36.967Z,21.18
2023-05-10T15:14:03.844Z,20.87
2023-05-10T15:16:32.235Z,20.30
2023-05-10T15:19:00.834Z,19.56
2023-05-10T15:21:31.282Z,19.07
2023-05-10T15:23:58.244Z,18.72
2023-05-10T15:26:27.376Z,18.60
2023-05-10T15:28:54.486Z,18.20
2023-05-10T15:31:21.477Z,17.94
2023-05-10T15:33:48.346Z,18.04
2023-05-10T15:36:15.403Z,18.08
2023-05-10T15:38:42.480Z,18.19
2023-05-10T15:41:09.434Z,18.25
2023-05-10T15:43:36.795Z,18.43
2023-05-10T15:46:03.644Z,18.37
2023-05-10T15:48:32.440Z,18.35
2023-05-10T15:50:59.430Z,18.50
2023-05-10T15:53:26.181Z,18.58
2023-05-10T15:55:53.129Z,18.62
2023-05-10T15:58:20.014Z,18.79
2023-05-10T16:00:46.921Z,18.82
2023-05-10T16:03:14.957Z,18.67
2023-05-10T16:05:41.936Z,18.58
2023-05-10T16:08:08.881Z,18.83
2023-05-10T16:10:35.662Z,18.90
2023-05-10T16:13:04.205Z,19.01
2023-05-10T16:15:31.085Z,18.57
2023-05-10T16:17:58.267Z,18.77
2023-05-10T16:20:25.986Z,18.68
2023-05-10T16:22:53.227Z,18.33
2023-05-10T16:25:20.306Z,17.90
2023-05-10T16:27:47.270Z,17.88
2023-05-10T16:30:14.772Z,17.72
2023-05-10T16:32:41.673Z,17.72
2023-05-10T16:35:11.072Z,17.87
2023-05-10T16:37:37.964Z,17.92
2023-05-10T16:40:05.501Z,18.00
2023-05-10T16:42:32.754Z,18.08
2023-05-10T16:45:07.490Z,18.12
2023-05-10T16:47:35.729Z,18.20
2023-05-10T16:50:03.346Z,18.14
2023-05-10T16:52:30.303Z,17.93
2023-05-10T16:54:57.152Z,17.55
2023-05-10T16:57:24.232Z,17.19
2023-05-10T16:59:53.618Z,17.04
2023-05-10T17:02:21.047Z,17.00
2023-05-10T17:04:47.921Z,16.84
2023-05-10T17:07:14.727Z,16.74
2023-05-10T17:09:42.730Z,16.72
2023-05-10T17:12:09.632Z,16.72
2023-05-10T17:14:37.653Z,16.86
2023-05-10T17:17:04.778Z,16.90
2023-05-10T17:19:31.912Z,16.83
2023-05-10T17:21:58.874Z,16.66
2023-05-10T17:24:27.306Z,16.23
2023-05-10T17:26:54.183Z,15.92
2023-05-10T17:29:20.952Z,15.67
2023-05-10T17:31:48.024Z,15.48
2023-05-10T17:34:14.860Z,15.34
2023-05-10T17:36:41.676Z,15.22
2023-05-10T17:39:08.445Z,15.03
2023-05-10T17:41:35.476Z,14.77
2023-05-10T17:44:02.312Z,14.62
2023-05-10T17:46:29.370Z,14.49
2023-05-10T17:48:56.425Z,14.19
2023-05-10T17:51:23.336Z,14.01
2023-05-10T17:53:50.282Z,13.83
2023-05-10T17:56:17.237Z,13.80
2023-05-10T17:58:44.114Z,13.80
2023-05-10T18:01:11.416Z,13.81
2023-05-10T18:03:38.444Z,13.78
2023-05-10T18:06:05.642Z,13.65
2023-05-10T18:08:33.252Z,13.67
2023-05-10T18:11:00.159Z,13.76
2023-05-10T18:13:26.995Z,13.88
2023-05-10T18:15:53.868Z,13.94
2023-05-10T18:18:20.927Z,13.93
2023-05-10T18:20:47.958Z,13.88
2023-05-10T18:23:15.411Z,13.73
2023-05-10T18:25:42.231Z,13.64
2023-05-10T18:28:09.133Z,13.50
2023-05-10T18:30:36.020Z,13.27
2023-05-10T18:33:03.647Z,13.10
2023-05-10T18:35:30.569Z,13.02
2023-05-10T18:37:57.416Z,12.84
2023-05-10T18:40:24.320Z,12.59
2023-05-10T18:42:51.304Z,12.26
2023-05-10T18:45:18.473Z,11.92
2023-05-10T18:47:45.989Z,11.62
2023-05-10T18:50:13.517Z,11.46
2023-05-10T18:52:40.484Z,11.31
2023-05-10T18:55:08.538Z,11.13
2023-05-10T18:57:41.889Z,10.98
2023-05-10T19:00:10.904Z,10.79
2023-05-10T19:02:39.619Z,10.53
2023-05-10T19:05:07.291Z,10.34
2023-05-10T19:07:34.220Z,10.16
2023-05-10T19:10:01.143Z,10.04
2023-05-10T19:12:28.596Z,9.97
2023-05-10T19:14:55.950Z,9.83
2023-05-10T19:17:23.108Z,9.69
2023-05-10T19:19:50.911Z,9.63
2023-05-10T19:22:31.990Z,9.58
2023-05-10T19:25:10.838Z,9.54
2023-05-10T19:27:38.754Z,9.48
2023-05-10T19:30:07.276Z,9.42
2023-05-10T19:32:34.289Z,9.39
2023-05-10T19:35:01.331Z,9.34
2023-05-10T19:37:28.387Z,9.30
2023-05-10T19:39:55.548Z,9.22
2023-05-10T19:42:22.405Z,9.22
2023-05-10T19:44:49.368Z,9.16
2023-05-10T19:47:16.381Z,9.06
2023-05-10T19:49:43.331Z,9.01
2023-05-10T19:52:12.027Z,9.05
2023-05-10T19:54:38.969Z,9.09
2023-05-10T19:57:05.818Z,9.07
2023-05-10T19:59:32.788Z,9.11
2023-05-10T20:01:59.617Z,9.10
2023-05-10T20:04:28.249Z,9.10
2023-05-10T20:06:55.204Z,9.02
2023-05-10T20:09:22.021Z,8.98
2023-05-10T20:11:49.202Z,8.99
2023-05-10T20:14:16.637Z,8.99
2023-05-10T20:16:43.477Z,9.03
2023-05-10T20:19:11.908Z,8.99
2023-05-10T20:21:38.910Z,8.94
2023-05-10T20:24:07.806Z,8.92
2023-05-10T20:26:34.729Z,8.91
2023-05-10T20:29:01.597Z,8.90
2023-05-10T20:31:29.390Z,8.94
2023-05-10T20:33:56.390Z,9.01
2023-05-10T20:36:23.293Z,9.08
2023-05-10T20:38:50.045Z,9.15
2023-05-10T20:41:16.843Z,9.19
2023-05-10T20:43:43.733Z,9.22
2023-05-10T20:46:11.173Z,9.26
2023-05-10T20:48:38.079Z,9.30
2023-05-10T20:51:04.910Z,9.30
2023-05-10T20:53:31.713Z,9.24
2023-05-10T20:55:58.591Z,9.19
2023-05-10T20:58:25.554Z,9.12
2023-05-10T21:00:52.498Z,9.13
2023-05-10T21:03:20.387Z,9.13
2023-05-10T21:05:47.551Z,9.13
2023-05-10T21:08:14.388Z,9.10
2023-05-10T21:10:41.208Z,9.09
2023-05-10T21:13:08.153Z,9.05
2023-05-10T21:15:35.925Z,9.01
2023-05-10T21:18:02.990Z,8.99
2023-05-10T21:20:30.192Z,8.97
2023-05-10T21:22:57.960Z,8.99
2023-05-10T21:25:25.671Z,8.97
2023-05-10T21:27:52.504Z,8.93
2023-05-10T21:30:19.658Z,8.91
2023-05-10T21:32:46.878Z,8.94
2023-05-10T21:35:13.742Z,8.93
2023-05-10T21:37:40.948Z,8.95
2023-05-10T21:40:08.362Z,8.93
2023-05-10T21:42:35.374Z,8.90
2023-05-10T21:45:02.152Z,8.88
2023-05-10T21:47:29.225Z,8.86
2023-05-10T21:49:56.582Z,8.87
2023-05-10T21:52:23.459Z,8.92
2023-05-10T21:54:50.407Z,8.91
2023-05-10T21:57:17.656Z,8.93
2023-05-10T21:59:44.526Z,8.88
2023-05-10T22:02:11.561Z,8.91
2023-05-10T22:04:38.480Z,8.86
2023-05-10T22:07:05.389Z,8.86
2023-05-10T22:09:32.222Z,8.89
2023-05-10T22:11:59.255Z,8.96
2023-05-10T22:14:26.162Z,9.00
2023-05-10T22:16:53.175Z,9.06
2023-05-10T22:19:20.100Z,9.09
2023-05-10T22:21:47.173Z,9.09
2023-05-10T22:24:14.065Z,9.13
2023-05-10T22:26:41.054Z,9.12
2023-05-10T22:29:07.961Z,9.14
2023-05-10T22:31:34.853Z,9.18
2023-05-10T22:34:02.015Z,9.21
2023-05-10T22:36:29.546Z,9.27
2023-05-10T22:38:56.863Z,9.24
2023-05-10T22:41:24.198Z,9.12
2023-05-10T22:43:51.085Z,9.08
2023-05-10T22:46:17.944Z,9.05
2023-05-10T22:48:44.802Z,9.00
2023-05-10T22:51:12.351Z,9.04
2023-05-10T22:53:39.177Z,9.15
2023-05-10T22:56:06.423Z,9.23
2023-05-10T22:58:33.495Z,9.28
2023-05-10T23:01:00.462Z,9.29
2023-05-10T23:03:27.348Z,9.34
2023-05-10T23:05:54.147Z,9.41
2023-05-10T23:08:21.547Z,9.43
2023-05-10T23:10:48.485Z,9.45
2023-05-10T23:13:15.591Z,9.48
2023-05-10T23:15:43.867Z,9.51
2023-05-10T23:18:10.825Z,9.53
2023-05-10T23:20:37.745Z,9.57
2023-05-10T23:23:05.480Z,9.60
2023-05-10T23:25:32.303Z,9.61
2023-05-10T23:27:59.106Z,9.65
2023-05-10T23:30:25.960Z,9.73
2023-05-10T23:32:52.857Z,9.73
2023-05-10T23:35:19.777Z,9.79
2023-05-10T23:37:46.791Z,9.87
2023-05-10T23:40:14.854Z,9.90
2023-05-10T23:42:41.800Z,9.92
2023-05-10T23:45:09.124Z,9.92
2023-05-10T23:47:35.972Z,9.98
2023-05-10T23:50:02.998Z,9.93
2023-05-10T23:52:29.832Z,9.93
2023-05-10T23:54:56.889Z,9.90
2023-05-10T23:57:23.680Z,9.87
2023-05-10T23:59:50.468Z,9.89
